createdAt,value
2022-08-05T00:00:46.650Z,5.17
2022-08-05T00:03:16.552Z,5.20
2022-08-05T00:06:05.002Z,5.65
2022-08-05T00:08:34.958Z,5.43
2022-08-05T00:11:07.507Z,5.72
2022-08-05T00:13:53.038Z,6.50
2022-08-05T00:16:20.103Z,6.20
2022-08-05T00:19:04.103Z,6.95
2022-08-05T00:21:30.755Z,6.68
2022-08-05T00:24:10.306Z,6.30
2022-08-05T00:26:37.858Z,6.10
2022-08-05T00:29:04.284Z,5.93
2022-08-05T00:31:53.135Z,5.40
2022-08-05T00:34:53.876Z,5.45
2022-08-05T00:37:11.095Z,5.30
2022-08-05T00:39:57.211Z,5.30
2022-08-05T00:42:33.227Z,5.57
2022-08-05T00:45:00.539Z,4.90
2022-08-05T00:47:31.550Z,5.00
2022-08-05T00:50:13.413Z,4.90
2022-08-05T00:52:40.011Z,4.23
2022-08-05T00:55:06.655Z,4.63
2022-08-05T00:57:38.411Z,4.60
2022-08-05T01:00:20.026Z,4.20
2022-08-05T01:02:50.160Z,4.28
2022-08-05T01:05:16.706Z,3.97
2022-08-05T01:08:41.410Z,4.53
2022-08-05T01:10:52.265Z,4.00
2022-08-05T01:13:57.973Z,3.97
2022-08-05T01:16:49.520Z,4.00
2022-08-05T01:19:22.286Z,4.10
2022-08-05T01:22:34.752Z,4.30
2022-08-05T01:25:20.942Z,4.40
2022-08-05T01:28:16.759Z,4.55
2022-08-05T01:30:55.108Z,4.65
2022-08-05T01:33:26.209Z,4.53
2022-08-05T01:35:55.608Z,4.47
2022-08-05T01:38:27.120Z,4.68
2022-08-05T01:40:58.679Z,5.05
2022-08-05T01:43:28.078Z,5.38
2022-08-05T01:45:56.413Z,5.10
2022-08-05T01:48:25.791Z,5.85
2022-08-05T01:50:55.423Z,6.32
2022-08-05T01:53:57.887Z,6.30
2022-08-05T01:56:13.792Z,6.28
2022-08-05T01:59:03.499Z,6.97
2022-08-05T02:01:39.987Z,6.72
2022-08-05T02:04:10.827Z,7.00
2022-08-05T02:06:39.094Z,6.82
2022-08-05T02:09:07.240Z,7.35
2022-08-05T02:11:48.009Z,7.30
2022-08-05T02:14:32.327Z,7.05
2022-08-05T02:17:06.655Z,7.30
2022-08-05T02:19:42.687Z,7.55
2022-08-05T02:22:26.197Z,7.47
2022-08-05T02:25:02.004Z,7.43
2022-08-05T02:27:59.129Z,7.25
2022-08-05T02:30:17.828Z,7.95
2022-08-05T02:32:48.058Z,7.43
2022-08-05T02:35:27.788Z,7.80
2022-08-05T02:37:56.608Z,7.33
2022-08-05T02:40:26.910Z,7.10
2022-08-05T02:42:55.564Z,7.57
2022-08-05T02:45:25.231Z,7.57
2022-08-05T02:48:11.921Z,7.35
2022-08-05T02:50:43.862Z,7.47
2022-08-05T02:53:18.636Z,7.07
2022-08-05T02:55:54.191Z,7.65
2022-08-05T02:58:27.175Z,7.53
2022-08-05T03:01:00.714Z,7.20
2022-08-05T03:03:34.086Z,7.20
2022-08-05T03:06:57.090Z,7.40
2022-08-05T03:09:04.956Z,7.00
2022-08-05T03:11:56.316Z,7.38
2022-08-05T03:14:17.940Z,8.05
2022-08-05T03:16:45.636Z,8.23
2022-08-05T03:19:20.367Z,7.60
2022-08-05T03:21:59.213Z,8.10
2022-08-05T03:24:30.215Z,7.70
2022-08-05T03:26:58.353Z,8.32
2022-08-05T03:29:24.799Z,8.57
2022-08-05T03:32:11.762Z,8.38
2022-08-05T03:34:41.115Z,8.02
2022-08-05T03:37:07.703Z,7.60
2022-08-05T03:39:38.300Z,8.07
2022-08-05T03:42:20.710Z,8.47
2022-08-05T03:44:47.148Z,9.57
2022-08-05T03:47:14.075Z,8.07
2022-08-05T03:49:51.606Z,8.32
2022-08-05T03:52:36.506Z,8.55
2022-08-05T03:56:06.066Z,8.63
2022-08-05T03:58:10.679Z,9.02
2022-08-05T04:00:41.961Z,8.73
2022-08-05T04:03:15.056Z,8.55
2022-08-05T04:05:55.739Z,8.77
2022-08-05T04:08:30.277Z,8.47
2022-08-05T04:11:04.618Z,8.85
2022-08-05T04:13:49.377Z,8.40
2022-08-05T04:16:24.890Z,8.15
2022-08-05T04:18:54.029Z,8.13
2022-08-05T04:22:10.284Z,8.17
2022-08-05T04:24:14.220Z,7.95
2022-08-05T04:26:46.703Z,7.55
2022-08-05T04:29:13.141Z,7.85
2022-08-05T04:31:40.933Z,7.13
2022-08-05T04:34:31.830Z,7.27
2022-08-05T04:36:54.466Z,7.20
2022-08-05T04:39:21.685Z,7.90
2022-08-05T04:41:51.028Z,7.82
2022-08-05T04:44:29.393Z,7.63
2022-08-05T04:46:58.524Z,7.73
2022-08-05T04:49:39.148Z,7.63
2022-08-05T04:52:11.734Z,7.85
2022-08-05T04:54:38.136Z,7.57
2022-08-05T04:57:04.604Z,7.90
2022-08-05T04:59:38.528Z,7.20
2022-08-05T05:02:36.082Z,7.82
2022-08-05T05:05:01.694Z,7.70
2022-08-05T05:07:29.615Z,7.40
2022-08-05T05:09:59.038Z,7.85
2022-08-05T05:12:29.129Z,7.10
2022-08-05T05:14:55.568Z,7.30
2022-08-05T05:17:24.518Z,7.18
2022-08-05T05:20:09.147Z,7.10
2022-08-05T05:22:36.277Z,7.25
2022-08-05T05:25:17.114Z,6.10
2022-08-05T05:27:53.788Z,6.30
2022-08-05T05:30:30.702Z,6.20
2022-08-05T05:33:08.879Z,5.85
2022-08-05T05:35:47.573Z,5.55
2022-08-05T05:38:14.943Z,5.83
2022-08-05T05:40:51.945Z,6.18
2022-08-05T05:43:57.015Z,6.47
2022-08-05T05:46:15.631Z,6.63
2022-08-05T05:48:44.033Z,5.85
2022-08-05T05:51:15.246Z,5.87
2022-08-05T05:53:54.521Z,6.57
2022-08-05T05:56:33.110Z,5.88
2022-08-05T05:59:03.361Z,5.47
2022-08-05T06:01:37.020Z,5.80
2022-08-05T06:04:07.134Z,5.97
2022-08-05T06:06:34.982Z,5.93
2022-08-05T06:09:04.372Z,5.80
2022-08-05T06:11:31.786Z,5.13
2022-08-05T06:14:00.163Z,5.00
2022-08-05T06:16:36.790Z,4.97
2022-08-05T06:19:05.767Z,4.78
2022-08-05T06:21:37.268Z,4.53
2022-08-05T06:24:06.302Z,4.78
2022-08-05T06:26:37.717Z,3.97
2022-08-05T06:29:23.650Z,4.37
2022-08-05T06:31:52.385Z,4.40
2022-08-05T06:34:19.858Z,4.13
2022-08-05T06:36:57.429Z,4.10
2022-08-05T06:39:27.236Z,4.45
2022-08-05T06:41:58.960Z,4.27
2022-08-05T06:44:26.000Z,4.20
2022-08-05T06:46:52.721Z,4.03
2022-08-05T06:49:59.842Z,4.45
2022-08-05T06:52:07.730Z,4.28
2022-08-05T06:54:54.099Z,4.30
2022-08-05T06:57:58.163Z,4.07
2022-08-05T07:00:07.722Z,4.60
2022-08-05T07:02:46.704Z,4.63
2022-08-05T07:05:15.410Z,3.60
2022-08-05T07:07:48.795Z,3.70
2022-08-05T07:10:16.298Z,3.72
2022-08-05T07:13:01.978Z,3.47
2022-08-05T07:16:01.977Z,3.30
2022-08-05T07:18:31.853Z,3.17
2022-08-05T07:20:58.571Z,3.50
2022-08-05T07:23:31.408Z,3.10
2022-08-05T07:25:57.801Z,2.80
2022-08-05T07:28:25.188Z,2.55
2022-08-05T07:30:55.207Z,2.30
2022-08-05T07:33:35.090Z,1.90
2022-08-05T07:36:20.569Z,2.20
2022-08-05T07:38:48.946Z,2.22
2022-08-05T07:42:08.969Z,2.03
2022-08-05T07:44:14.027Z,2.10
2022-08-05T07:46:48.528Z,1.90
2022-08-05T07:49:18.149Z,1.50
2022-08-05T07:51:54.483Z,1.80
2022-08-05T07:54:31.355Z,1.90
2022-08-05T07:57:22.539Z,1.50
2022-08-05T07:59:48.797Z,1.70
2022-08-05T08:02:17.626Z,1.70
2022-08-05T08:04:49.221Z,1.75
2022-08-05T08:07:22.755Z,1.80
2022-08-05T08:09:52.339Z,1.95
2022-08-05T08:12:33.348Z,1.50
2022-08-05T08:15:09.688Z,1.80
2022-08-05T08:17:46.096Z,1.60
2022-08-05T08:20:44.221Z,1.60
2022-08-05T08:23:03.991Z,1.60
2022-08-05T08:25:58.920Z,1.60
2022-08-05T08:28:18.708Z,1.73
2022-08-05T08:31:02.378Z,1.60
2022-08-05T08:33:35.918Z,1.70
2022-08-05T08:36:38.708Z,1.48
2022-08-05T08:38:55.159Z,1.40
2022-08-05T08:41:26.321Z,1.50
2022-08-05T08:45:21.191Z,1.50
2022-08-05T08:46:57.825Z,1.40
2022-08-05T08:50:22.384Z,1.55
2022-08-05T08:52:17.259Z,1.40
2022-08-05T08:54:44.618Z,1.63
2022-08-05T08:57:13.376Z,1.55
2022-08-05T08:59:41.738Z,1.20
2022-08-05T09:02:14.493Z,1.30
2022-08-05T09:04:58.497Z,1.40
2022-08-05T09:07:39.843Z,1.40
2022-08-05T09:10:17.701Z,1.30
2022-08-05T09:12:45.541Z,1.33
2022-08-05T09:15:17.837Z,1.20
2022-08-05T09:17:49.757Z,1.20
2022-08-05T09:20:36.778Z,1.20
2022-08-05T09:23:19.646Z,1.10
2022-08-05T09:26:02.612Z,1.00
2022-08-05T09:28:33.583Z,1.10
2022-08-05T09:31:44.173Z,0.90
2022-08-05T09:34:11.796Z,1.10
2022-08-05T09:36:54.014Z,0.90
2022-08-05T09:39:27.573Z,0.93
2022-08-05T09:42:08.559Z,0.75
2022-08-05T09:44:41.177Z,1.00
2022-08-05T09:47:17.987Z,1.05
2022-08-05T09:50:02.164Z,0.90
2022-08-05T09:52:34.309Z,0.80
2022-08-05T09:55:56.091Z,0.70
2022-08-05T09:57:58.559Z,0.70
2022-08-05T10:00:25.922Z,0.82
2022-08-05T10:02:58.385Z,0.90
2022-08-05T10:05:28.895Z,0.57
2022-08-05T10:08:10.644Z,0.85
2022-08-05T10:10:50.231Z,0.70
2022-08-05T10:13:45.627Z,0.90
2022-08-05T10:16:41.686Z,0.80
2022-08-05T10:19:23.836Z,0.88
2022-08-05T10:22:07.854Z,0.93
2022-08-05T10:24:39.785Z,0.90
2022-08-05T10:27:07.609Z,0.70
2022-08-05T10:30:41.494Z,1.00
2022-08-05T10:32:51.790Z,0.60
2022-08-05T10:35:10.540Z,0.80
2022-08-05T10:37:44.831Z,0.43
2022-08-05T10:40:34.437Z,0.70
2022-08-05T10:43:35.876Z,0.77
2022-08-05T10:46:07.122Z,0.80
2022-08-05T10:48:38.434Z,0.70
2022-08-05T10:51:23.088Z,0.50
2022-08-05T10:54:00.871Z,0.80
2022-08-05T10:56:30.344Z,0.73
2022-08-05T10:59:12.190Z,0.75
2022-08-05T11:01:55.033Z,0.80
2022-08-05T11:04:31.072Z,0.80
2022-08-05T11:06:58.311Z,0.80
2022-08-05T11:09:39.246Z,0.90
2022-08-05T11:12:24.755Z,0.63
2022-08-05T11:15:19.300Z,0.70
2022-08-05T11:18:10.977Z,0.80
2022-08-05T11:20:46.328Z,0.60
2022-08-05T11:23:33.231Z,0.80
2022-08-05T11:26:11.911Z,0.68
2022-08-05T11:28:40.065Z,0.68
2022-08-05T11:31:06.877Z,0.63
2022-08-05T11:33:46.206Z,0.60
2022-08-05T11:36:34.440Z,0.60
2022-08-05T11:39:04.201Z,0.60
2022-08-05T11:42:01.430Z,0.52
2022-08-05T11:44:52.730Z,0.50
2022-08-05T11:47:14.224Z,0.60
2022-08-05T11:49:49.801Z,0.60
2022-08-05T11:52:29.310Z,0.50
2022-08-05T11:54:58.304Z,0.55
2022-08-05T11:57:30.508Z,0.40
2022-08-05T11:59:58.847Z,0.50
2022-08-05T12:02:33.059Z,0.60
2022-08-05T12:05:07.146Z,0.45
2022-08-05T12:08:09.296Z,0.60
2022-08-05T12:10:43.690Z,0.50
2022-08-05T12:13:17.105Z,0.55
2022-08-05T12:15:49.684Z,0.50
2022-08-05T12:18:30.918Z,0.45
2022-08-05T12:21:17.404Z,0.50
2022-08-05T12:24:06.903Z,0.53
2022-08-05T12:26:54.141Z,0.50
2022-08-05T12:29:25.910Z,0.40
2022-08-05T12:31:55.176Z,0.50
2022-08-05T12:34:26.725Z,0.70
2022-08-05T12:36:54.617Z,0.57
2022-08-05T12:39:23.642Z,0.40
2022-08-05T12:42:00.922Z,0.70
2022-08-05T12:44:33.333Z,0.73
2022-08-05T12:47:02.146Z,0.50
2022-08-05T12:50:02.254Z,0.60
2022-08-05T12:52:39.703Z,0.70
2022-08-05T12:55:22.676Z,0.60
2022-08-05T12:58:48.828Z,0.65
2022-08-05T13:01:59.783Z,0.70
2022-08-05T13:03:41.616Z,0.50
2022-08-05T13:06:12.394Z,0.70
2022-08-05T13:08:38.796Z,0.80
2022-08-05T13:11:07.747Z,0.45
2022-08-05T13:14:06.743Z,0.50
2022-08-05T13:16:28.750Z,0.60
2022-08-05T13:18:58.442Z,0.57
2022-08-05T13:21:28.411Z,0.80
2022-08-05T13:24:05.039Z,0.60
2022-08-05T13:26:31.501Z,0.60
2022-08-05T13:28:59.188Z,0.60
2022-08-05T13:31:33.992Z,0.60
2022-08-05T13:34:23.963Z,0.50
2022-08-05T13:36:51.918Z,0.60
2022-08-05T13:40:13.055Z,0.50
2022-08-05T13:42:04.952Z,0.63
2022-08-05T13:44:32.372Z,0.50
2022-08-05T13:47:04.848Z,0.50
2022-08-05T13:49:35.559Z,0.50
2022-08-05T13:52:12.557Z,0.50
2022-08-05T13:54:39.268Z,0.67
2022-08-05T13:57:06.442Z,0.65
2022-08-05T13:59:32.929Z,0.60
2022-08-05T14:02:00.718Z,0.50
2022-08-05T14:04:49.205Z,0.70
2022-08-05T14:08:00.611Z,0.70
2022-08-05T14:10:19.085Z,0.60
2022-08-05T14:12:55.704Z,0.60
2022-08-05T14:16:07.007Z,0.50
2022-08-05T14:18:15.196Z,0.57
2022-08-05T14:20:48.743Z,0.50
2022-08-05T14:23:24.883Z,0.40
2022-08-05T14:25:59.047Z,0.47
2022-08-05T14:28:29.591Z,0.50
2022-08-05T14:30:57.396Z,0.47
2022-08-05T14:33:24.187Z,0.50
2022-08-05T14:35:54.117Z,0.50
2022-08-05T14:38:27.879Z,0.60
2022-08-05T14:41:00.781Z,0.60
2022-08-05T14:43:59.084Z,0.40
2022-08-05T14:46:13.663Z,0.50
2022-08-05T14:48:40.456Z,0.40
2022-08-05T14:51:06.927Z,0.50
2022-08-05T14:53:34.883Z,0.50
2022-08-05T14:56:11.104Z,0.50
2022-08-05T14:58:38.404Z,0.50
2022-08-05T15:01:16.260Z,0.43
2022-08-05T15:03:43.415Z,0.68
2022-08-05T15:06:15.619Z,0.65
2022-08-05T15:08:58.055Z,0.80
2022-08-05T15:11:51.489Z,0.60
2022-08-05T15:14:20.292Z,0.52
2022-08-05T15:16:59.330Z,0.80
2022-08-05T15:19:26.111Z,0.80
2022-08-05T15:21:52.597Z,0.70
2022-08-05T15:24:19.004Z,0.57
2022-08-05T15:26:46.528Z,0.70
2022-08-05T15:29:15.072Z,0.60
2022-08-05T15:31:41.631Z,0.60
2022-08-05T15:34:32.490Z,0.50
2022-08-05T15:36:54.484Z,0.63
2022-08-05T15:41:03.269Z,0.60
2022-08-05T15:42:54.008Z,0.75
2022-08-05T15:44:54.930Z,0.50
2022-08-05T15:47:22.580Z,0.77
2022-08-05T15:49:56.032Z,0.60
2022-08-05T15:52:51.880Z,0.70
2022-08-05T15:55:17.487Z,0.60
2022-08-05T15:57:46.099Z,0.60
2022-08-05T16:00:32.583Z,0.55
2022-08-05T16:03:04.728Z,0.83
2022-08-05T16:05:31.863Z,0.73
2022-08-05T16:07:58.265Z,0.50
2022-08-05T16:10:26.888Z,0.50
2022-08-05T16:12:55.997Z,0.60
2022-08-05T16:15:23.295Z,0.60
2022-08-05T16:17:57.905Z,0.70
2022-08-05T16:20:25.284Z,0.52
2022-08-05T16:22:51.691Z,0.70
2022-08-05T16:25:18.251Z,0.60
2022-08-05T16:28:00.075Z,0.50
2022-08-05T16:30:31.871Z,0.40
2022-08-05T16:32:59.775Z,0.60
2022-08-05T16:35:28.293Z,0.60
2022-08-05T16:38:02.446Z,0.70
2022-08-05T16:40:52.052Z,0.40
2022-08-05T16:43:27.512Z,0.40
2022-08-05T16:46:06.977Z,0.50
2022-08-05T16:48:39.496Z,0.43
2022-08-05T16:51:09.256Z,0.52
2022-08-05T16:54:05.395Z,0.47
2022-08-05T16:56:23.432Z,0.40
2022-08-05T16:58:50.363Z,0.50
2022-08-05T17:01:16.918Z,0.50
2022-08-05T17:03:45.706Z,0.52
2022-08-05T17:06:12.472Z,0.40
2022-08-05T17:08:52.903Z,0.50
2022-08-05T17:11:23.880Z,0.60
2022-08-05T17:14:05.923Z,0.40
2022-08-05T17:16:36.051Z,0.60
2022-08-05T17:19:07.533Z,0.60
2022-08-05T17:21:37.089Z,0.50
2022-08-05T17:24:19.310Z,0.50
2022-08-05T17:26:57.469Z,0.40
2022-08-05T17:29:33.152Z,0.50
2022-08-05T17:32:06.647Z,0.60
2022-08-05T17:34:35.209Z,0.40
2022-08-05T17:37:02.152Z,0.63
2022-08-05T17:39:34.162Z,0.40
2022-08-05T17:42:18.316Z,0.60
2022-08-05T17:44:50.066Z,0.53
2022-08-05T17:47:21.965Z,0.70
2022-08-05T17:50:00.475Z,0.70
2022-08-05T17:52:32.377Z,0.50
2022-08-05T17:54:59.329Z,0.50
2022-08-05T17:57:25.820Z,0.50
2022-08-05T18:00:05.583Z,0.50
2022-08-05T18:02:34.197Z,0.55
2022-08-05T18:05:03.716Z,0.50
2022-08-05T18:07:41.388Z,0.63
2022-08-05T18:10:10.969Z,0.40
2022-08-05T18:12:38.164Z,0.60
2022-08-05T18:15:05.127Z,0.55
2022-08-05T18:18:00.394Z,0.60
2022-08-05T18:20:19.341Z,0.50
2022-08-05T18:22:57.399Z,0.50
2022-08-05T18:25:25.118Z,0.90
2022-08-05T18:27:52.232Z,0.50
2022-08-05T18:30:19.495Z,0.60
2022-08-05T18:32:53.103Z,0.50
2022-08-05T18:35:20.425Z,0.50
2022-08-05T18:38:07.487Z,0.60
2022-08-05T18:41:55.215Z,0.60
2022-08-05T18:43:21.495Z,0.40
2022-08-05T18:45:49.625Z,0.60
2022-08-05T18:48:31.180Z,0.40
2022-08-05T18:52:04.400Z,0.50
2022-08-05T18:54:05.802Z,0.50
2022-08-05T18:56:32.836Z,0.40
2022-08-05T18:59:01.017Z,0.55
2022-08-05T19:01:33.596Z,0.30
2022-08-05T19:04:14.285Z,0.40
2022-08-05T19:06:50.645Z,0.40
2022-08-05T19:09:17.088Z,0.40
2022-08-05T19:12:00.726Z,0.50
2022-08-05T19:14:59.610Z,0.40
2022-08-05T19:17:14.642Z,0.30
2022-08-05T19:19:46.489Z,0.40
2022-08-05T19:22:17.150Z,0.52
2022-08-05T19:24:55.796Z,0.50
2022-08-05T19:27:24.413Z,0.50
2022-08-05T19:29:57.198Z,0.40
2022-08-05T19:32:26.273Z,0.40
2022-08-05T19:34:55.115Z,0.40
2022-08-05T19:37:35.015Z,0.60
2022-08-05T19:40:10.757Z,0.50
2022-08-05T19:42:38.723Z,0.40
2022-08-05T19:45:07.014Z,0.35
2022-08-05T19:47:34.866Z,0.70
2022-08-05T19:50:04.870Z,0.50
2022-08-05T19:52:34.315Z,0.50
2022-08-05T19:55:06.824Z,0.50
2022-08-05T19:57:47.325Z,0.57
2022-08-05T20:00:20.786Z,0.50
2022-08-05T20:02:47.400Z,1.02
2022-08-05T20:05:16.432Z,0.67
2022-08-05T20:07:55.029Z,0.50
2022-08-05T20:10:25.139Z,0.50
2022-08-05T20:12:51.706Z,0.40
2022-08-05T20:15:47.917Z,0.85
2022-08-05T20:18:10.384Z,0.90
2022-08-05T20:20:55.236Z,0.65
2022-08-05T20:23:23.083Z,0.57
2022-08-05T20:25:49.497Z,0.60
2022-08-05T20:28:19.015Z,0.70
2022-08-05T20:30:45.497Z,0.90
2022-08-05T20:33:14.272Z,0.75
2022-08-05T20:35:45.486Z,0.88
2022-08-05T20:38:14.433Z,1.00
2022-08-05T20:40:50.489Z,0.90
2022-08-05T20:43:17.395Z,0.90
2022-08-05T20:46:00.435Z,1.00
2022-08-05T20:48:27.703Z,0.80
2022-08-05T20:50:54.342Z,0.90
2022-08-05T20:53:36.630Z,1.00
2022-08-05T20:56:08.309Z,0.80
2022-08-05T20:58:35.927Z,0.60
2022-08-05T21:01:03.877Z,0.70
2022-08-05T21:03:34.516Z,0.57
2022-08-05T21:06:01.676Z,0.60
2022-08-05T21:08:41.254Z,0.60
2022-08-05T21:11:13.011Z,0.60
2022-08-05T21:13:59.505Z,0.57
2022-08-05T21:16:30.013Z,0.60
2022-08-05T21:18:56.700Z,0.70
2022-08-05T21:21:26.811Z,0.50
2022-08-05T21:24:07.218Z,0.60
2022-08-05T21:26:33.764Z,0.70
2022-08-05T21:29:03.516Z,1.00
2022-08-05T21:31:41.100Z,0.90
2022-08-05T21:34:08.488Z,0.80
2022-08-05T21:36:37.173Z,0.80
2022-08-05T21:39:03.804Z,0.85
2022-08-05T21:41:34.274Z,1.10
2022-08-05T21:44:04.247Z,1.13
2022-08-05T21:46:34.647Z,1.00
2022-08-05T21:49:07.310Z,1.05
2022-08-05T21:52:22.735Z,1.25
2022-08-05T21:54:27.996Z,1.23
2022-08-05T21:57:15.394Z,1.15
2022-08-05T22:00:02.935Z,1.00
2022-08-05T22:02:30.205Z,1.30
2022-08-05T22:04:58.322Z,1.40
2022-08-05T22:07:40.125Z,1.58
2022-08-05T22:10:12.576Z,1.08
2022-08-05T22:12:40.173Z,1.10
2022-08-05T22:15:16.342Z,1.10
2022-08-05T22:17:48.731Z,0.95
2022-08-05T22:20:26.445Z,0.90
2022-08-05T22:23:17.214Z,1.10
2022-08-05T22:26:10.773Z,1.50
2022-08-05T22:28:38.157Z,1.58
2022-08-05T22:31:05.778Z,1.55
2022-08-05T22:33:57.973Z,1.60
2022-08-05T22:36:19.047Z,1.67
2022-08-05T22:38:50.286Z,1.73
2022-08-05T22:42:04.766Z,1.67
2022-08-05T22:44:08.325Z,1.70
2022-08-05T22:46:39.757Z,1.60
2022-08-05T22:49:23.225Z,1.70
2022-08-05T22:52:06.401Z,1.50
2022-08-05T22:54:35.227Z,1.80
2022-08-05T22:57:01.751Z,1.73
2022-08-05T22:59:43.940Z,1.90
2022-08-05T23:02:16.914Z,1.70
2022-08-05T23:04:44.007Z,1.30
2022-08-05T23:07:18.136Z,1.63
2022-08-05T23:09:57.198Z,1.73
2022-08-05T23:12:32.490Z,1.65
2022-08-05T23:15:03.627Z,1.58
2022-08-05T23:17:35.019Z,1.47
2022-08-05T23:20:17.431Z,1.50
2022-08-05T23:22:48.352Z,1.70
2022-08-05T23:25:51.088Z,1.70
2022-08-05T23:28:06.889Z,1.60
2022-08-05T23:30:39.582Z,1.80
2022-08-05T23:33:07.407Z,1.50
2022-08-05T23:35:50.021Z,1.60
2022-08-05T23:38:16.996Z,1.60
2022-08-05T23:40:49.786Z,1.90
2022-08-05T23:43:25.685Z,1.67
2022-08-05T23:46:19.945Z,1.63
2022-08-05T23:49:00.973Z,1.88
2022-08-05T23:51:53.474Z,1.90
2022-08-05T23:54:29.848Z,2.30
2022-08-05T23:57:03.381Z,2.07
